createdAt,value
2018-08-27T00:00:27.068Z,100443.80
2018-08-27T00:02:55.305Z,100443.77
2018-08-27T00:05:23.513Z,100443.25
2018-08-27T00:07:51.735Z,100434.24
2018-08-27T00:10:19.936Z,100439.03
2018-08-27T00:12:48.160Z,100434.86
2018-08-27T00:15:16.369Z,100434.71
2018-08-27T00:17:44.615Z,100435.27
2018-08-27T00:20:12.813Z,100440.00
2018-08-27T00:22:41.285Z,100438.84
2018-08-27T00:25:09.496Z,100435.20
2018-08-27T00:27:37.737Z,100435.73
2018-08-27T00:30:06.133Z,100438.66
2018-08-27T00:32:34.357Z,100434.84
2018-08-27T00:35:02.739Z,100433.53
2018-08-27T00:37:30.977Z,100434.51
2018-08-27T00:39:59.208Z,100434.83
2018-08-27T00:42:27.452Z,100432.74
2018-08-27T00:44:55.652Z,100432.81
2018-08-27T00:47:23.956Z,100430.77
2018-08-27T00:49:52.153Z,100426.09
2018-08-27T00:52:20.424Z,100428.81
2018-08-27T00:54:48.628Z,100430.46
2018-08-27T00:57:16.880Z,100417.53
2018-08-27T00:59:45.082Z,100424.58
2018-08-27T01:02:13.305Z,100421.19
2018-08-27T01:04:41.512Z,100427.16
2018-08-27T01:07:09.756Z,100428.61
2018-08-27T01:09:37.957Z,100432.33
2018-08-27T01:12:06.237Z,100436.44
2018-08-27T01:14:34.432Z,100440.75
2018-08-27T01:17:02.640Z,100453.97
2018-08-27T01:19:30.849Z,100458.38
2018-08-27T01:21:59.072Z,100453.63
2018-08-27T01:24:27.288Z,100458.03
2018-08-27T01:26:55.516Z,100457.35
2018-08-27T01:29:23.724Z,100456.34
2018-08-27T01:31:57.271Z,100450.92
2018-08-27T01:34:25.464Z,100442.09
2018-08-27T01:36:53.667Z,100439.38
2018-08-27T01:39:21.904Z,100414.83
2018-08-27T01:41:50.104Z,100424.73
2018-08-27T01:44:18.312Z,100417.95
2018-08-27T01:46:46.496Z,100403.55
2018-08-27T01:49:14.752Z,100397.19
2018-08-27T01:51:42.992Z,100393.44
2018-08-27T01:54:11.212Z,100377.09
2018-08-27T01:56:39.404Z,100378.94
2018-08-27T01:59:07.668Z,100382.87
2018-08-27T02:01:35.895Z,100381.55
2018-08-27T02:04:04.305Z,100369.46
2018-08-27T02:06:36.444Z,100362.17
2018-08-27T02:09:06.956Z,100351.88
2018-08-27T02:11:35.164Z,100355.66
2018-08-27T02:14:03.392Z,100346.25
2018-08-27T02:16:31.602Z,100337.11
2018-08-27T02:18:59.824Z,100332.05
2018-08-27T02:21:28.044Z,100337.25
2018-08-27T02:23:56.288Z,100330.34
2018-08-27T02:26:24.483Z,100324.80
2018-08-27T02:28:52.703Z,100307.69
2018-08-27T02:31:20.957Z,100313.27
2018-08-27T02:33:49.197Z,100309.45
2018-08-27T02:36:17.396Z,100291.34
2018-08-27T02:38:45.621Z,100289.77
2018-08-27T02:41:13.835Z,100293.28
2018-08-27T02:43:42.064Z,100285.52
2018-08-27T02:46:10.285Z,100277.36
2018-08-27T02:48:38.531Z,100270.42
2018-08-27T02:51:06.788Z,100275.61
2018-08-27T02:53:35.044Z,100263.13
2018-08-27T02:56:03.264Z,100255.31
2018-08-27T02:58:31.501Z,100248.11
2018-08-27T03:00:59.712Z,100244.78
2018-08-27T03:03:27.940Z,100245.64
2018-08-27T03:05:56.140Z,100249.40
2018-08-27T03:08:24.364Z,100239.58
2018-08-27T03:10:52.611Z,100233.54
2018-08-27T03:13:20.832Z,100236.58
2018-08-27T03:15:49.035Z,100230.53
2018-08-27T03:18:17.298Z,100236.59
2018-08-27T03:20:46.594Z,100221.61
2018-08-27T03:23:16.225Z,100213.95
2018-08-27T03:25:45.902Z,100213.43
2018-08-27T03:28:15.301Z,100211.70
2018-08-27T03:30:44.719Z,100214.66
2018-08-27T03:33:14.169Z,100205.66
2018-08-27T03:35:43.437Z,100205.60
2018-08-27T03:38:12.795Z,100202.53
2018-08-27T03:40:42.132Z,100193.84
2018-08-27T03:43:12.424Z,100188.63
2018-08-27T03:45:42.238Z,100179.20
2018-08-27T03:48:11.592Z,100178.34
2018-08-27T03:50:41.070Z,100174.55
2018-08-27T03:53:10.413Z,100183.74
2018-08-27T03:55:40.073Z,100178.91
2018-08-27T03:58:08.956Z,100184.41
2018-08-27T04:00:37.600Z,100179.20
2018-08-27T04:03:06.835Z,100176.62
2018-08-27T04:05:36.093Z,100185.19
2018-08-27T04:08:05.178Z,100189.75
2018-08-27T04:10:34.520Z,100186.32
2018-08-27T04:13:03.431Z,100193.09
2018-08-27T04:15:32.806Z,100192.27
2018-08-27T04:18:01.635Z,100189.73
2018-08-27T04:20:30.974Z,100194.77
2018-08-27T04:23:00.188Z,100190.73
2018-08-27T04:25:29.725Z,100193.67
2018-08-27T04:27:59.060Z,100194.03
2018-08-27T04:30:28.960Z,100200.33
2018-08-27T04:32:58.254Z,100199.80
2018-08-27T04:35:27.694Z,100201.97
2018-08-27T04:37:57.075Z,100201.45
2018-08-27T04:40:26.366Z,100203.92
2018-08-27T04:42:55.590Z,100197.33
2018-08-27T04:45:24.550Z,100195.95
2018-08-27T04:47:53.727Z,100202.16
2018-08-27T04:50:23.099Z,100195.34
2018-08-27T04:52:52.522Z,100194.25
2018-08-27T04:55:21.628Z,100195.07
2018-08-27T04:57:50.891Z,100188.98
2018-08-27T05:00:24.067Z,100190.70
2018-08-27T05:02:53.267Z,100181.36
2018-08-27T05:05:22.783Z,100190.30
2018-08-27T05:07:52.176Z,100191.22
2018-08-27T05:10:21.503Z,100190.81
2018-08-27T05:12:50.972Z,100183.41
2018-08-27T05:15:20.652Z,100181.41
2018-08-27T05:17:49.837Z,100179.63
2018-08-27T05:20:19.621Z,100172.38
2018-08-27T05:22:48.855Z,100182.98
2018-08-27T05:25:17.770Z,100185.98
2018-08-27T05:27:47.888Z,100187.28
2018-08-27T05:30:17.048Z,100189.83
2018-08-27T05:32:45.328Z,100194.80
2018-08-27T05:35:13.588Z,100192.55
2018-08-27T05:37:41.832Z,100188.83
2018-08-27T05:40:10.817Z,100189.73
2018-08-27T05:42:39.053Z,100201.25
2018-08-27T05:45:07.344Z,100195.77
2018-08-27T05:47:35.618Z,100204.73
2018-08-27T05:50:03.961Z,100201.56
2018-08-27T05:52:32.223Z,100200.44
2018-08-27T05:55:00.579Z,100206.73
2018-08-27T05:57:28.799Z,100201.28
2018-08-27T05:59:57.032Z,100202.09
2018-08-27T06:02:25.232Z,100206.80
2018-08-27T06:04:53.461Z,100210.16
2018-08-27T06:07:21.662Z,100210.03
2018-08-27T06:09:49.955Z,100209.89
2018-08-27T06:12:18.137Z,100220.06
2018-08-27T06:14:46.368Z,100225.77
2018-08-27T06:17:14.694Z,100199.81
2018-08-27T06:19:42.880Z,100217.15
2018-08-27T06:22:11.188Z,100223.84
2018-08-27T06:24:39.292Z,100219.70
2018-08-27T06:27:07.512Z,100215.05
2018-08-27T06:29:35.708Z,100216.41
2018-08-27T06:32:04.053Z,100216.44
2018-08-27T06:34:32.260Z,100223.57
2018-08-27T06:37:00.501Z,100231.95
2018-08-27T06:39:28.712Z,100225.16
2018-08-27T06:41:56.946Z,100226.55
2018-08-27T06:44:25.224Z,100225.25
2018-08-27T06:46:53.409Z,100220.61
2018-08-27T06:49:21.659Z,100228.41
2018-08-27T06:51:49.919Z,100227.19
2018-08-27T06:54:18.136Z,100230.99
2018-08-27T06:56:46.399Z,100227.61
2018-08-27T06:59:14.582Z,100232.34
2018-08-27T07:01:42.829Z,100229.78
2018-08-27T07:04:11.036Z,100234.07
2018-08-27T07:06:39.273Z,100237.70
2018-08-27T07:09:09.108Z,100235.19
2018-08-27T07:11:37.420Z,100238.58
2018-08-27T07:14:05.913Z,100245.36
2018-08-27T07:16:34.128Z,100242.38
2018-08-27T07:19:02.364Z,100247.94
2018-08-27T07:21:30.589Z,100245.30
2018-08-27T07:23:58.804Z,100253.11
2018-08-27T07:26:27.028Z,100246.31
2018-08-27T07:28:55.231Z,100252.30
2018-08-27T07:31:23.474Z,100254.82
2018-08-27T07:33:51.683Z,100245.81
2018-08-27T07:36:19.925Z,100248.33
2018-08-27T07:38:48.128Z,100250.52
2018-08-27T07:41:16.344Z,100251.75
2018-08-27T07:43:44.541Z,100252.75
2018-08-27T07:46:12.788Z,100247.52
2018-08-27T07:48:40.988Z,100251.69
2018-08-27T07:51:09.254Z,100256.84
2018-08-27T07:53:37.500Z,100246.02
2018-08-27T07:56:05.805Z,100250.91
2018-08-27T07:58:34.040Z,100255.67
2018-08-27T08:01:02.260Z,100256.91
2018-08-27T08:03:30.466Z,100263.78
2018-08-27T08:05:58.770Z,100255.91
2018-08-27T08:08:26.941Z,100254.39
2018-08-27T08:10:55.180Z,100264.28
2018-08-27T08:13:23.437Z,100267.59
2018-08-27T08:15:51.696Z,100270.58
2018-08-27T08:18:20.633Z,100271.02
2018-08-27T08:20:49.615Z,100274.88
2018-08-27T08:23:18.191Z,100267.86
2018-08-27T08:25:46.603Z,100269.65
2018-08-27T08:28:14.828Z,100278.12
2018-08-27T08:30:43.049Z,100277.25
2018-08-27T08:33:11.795Z,100273.66
2018-08-27T08:35:39.953Z,100270.51
2018-08-27T08:38:08.232Z,100282.74
2018-08-27T08:40:36.424Z,100283.17
2018-08-27T08:43:04.661Z,100286.63
2018-08-27T08:45:32.884Z,100292.50
2018-08-27T08:48:01.168Z,100286.92
2018-08-27T08:50:29.400Z,100288.05
2018-08-27T08:52:57.623Z,100280.25
2018-08-27T08:55:26.260Z,100288.61
2018-08-27T08:57:54.504Z,100294.55
2018-08-27T09:00:22.715Z,100297.66
2018-08-27T09:02:50.952Z,100277.87
2018-08-27T09:05:19.200Z,100294.17
2018-08-27T09:07:47.437Z,100298.87
2018-08-27T09:10:15.735Z,100301.45
2018-08-27T09:12:43.967Z,100305.25
2018-08-27T09:15:12.172Z,100305.00
2018-08-27T09:17:40.418Z,100317.67
2018-08-27T09:20:09.627Z,100316.02
2018-08-27T09:22:37.873Z,100306.06
2018-08-27T09:25:06.172Z,100313.38
2018-08-27T09:27:34.780Z,100315.37
2018-08-27T09:30:03.009Z,100313.19
2018-08-27T09:32:31.252Z,100315.28
2018-08-27T09:34:59.498Z,100318.09
2018-08-27T09:37:27.780Z,100315.83
2018-08-27T09:39:55.941Z,100311.59
2018-08-27T09:42:24.190Z,100315.20
2018-08-27T09:44:52.389Z,100310.63
2018-08-27T09:47:20.650Z,100316.70
2018-08-27T09:49:48.865Z,100317.70
2018-08-27T09:52:17.120Z,100326.97
2018-08-27T09:54:45.336Z,100329.20
2018-08-27T09:57:13.593Z,100324.08
2018-08-27T09:59:41.864Z,100332.13
2018-08-27T10:02:10.072Z,100327.97
2018-08-27T10:04:38.300Z,100334.05
2018-08-27T10:07:06.513Z,100331.13
2018-08-27T10:09:34.747Z,100338.09
2018-08-27T10:12:02.968Z,100339.95
2018-08-27T10:14:31.216Z,100339.10
2018-08-27T10:16:59.444Z,100334.27
2018-08-27T10:19:27.684Z,100335.03
2018-08-27T10:21:55.889Z,100334.14
2018-08-27T10:24:24.118Z,100330.85
2018-08-27T10:26:52.373Z,100336.41
2018-08-27T10:29:20.607Z,100333.12
2018-08-27T10:31:49.009Z,100313.53
2018-08-27T10:34:17.267Z,100328.55
2018-08-27T10:36:45.525Z,100328.02
2018-08-27T10:39:13.772Z,100334.25
2018-08-27T10:41:41.996Z,100340.88
2018-08-27T10:44:10.233Z,100336.98
2018-08-27T10:46:38.459Z,100342.04
2018-08-27T10:49:06.697Z,100352.05
2018-08-27T10:51:34.993Z,100353.08
2018-08-27T10:54:03.237Z,100348.67
2018-08-27T10:56:31.448Z,100357.86
2018-08-27T10:58:59.667Z,100355.80
2018-08-27T11:01:27.876Z,100347.39
2018-08-27T11:03:56.160Z,100347.53
2018-08-27T11:06:24.388Z,100342.95
2018-08-27T11:08:52.640Z,100346.30
2018-08-27T11:11:20.883Z,100348.67
2018-08-27T11:13:49.110Z,100347.94
2018-08-27T11:16:17.321Z,100347.86
2018-08-27T11:18:45.571Z,100349.37
2018-08-27T11:21:13.794Z,100353.31
2018-08-27T11:23:42.040Z,100363.78
2018-08-27T11:26:10.255Z,100360.09
2018-08-27T11:28:38.504Z,100359.37
2018-08-27T11:31:06.728Z,100369.17
2018-08-27T11:33:34.989Z,100376.25
2018-08-27T11:36:03.242Z,100382.16
2018-08-27T11:38:31.500Z,100387.76
2018-08-27T11:40:59.724Z,100390.20
2018-08-27T11:43:28.047Z,100389.80
2018-08-27T11:45:56.228Z,100398.23
2018-08-27T11:48:24.452Z,100400.87
2018-08-27T11:50:52.887Z,100398.17
2018-08-27T11:53:21.020Z,100399.16
2018-08-27T11:55:49.269Z,100394.66
2018-08-27T11:58:17.540Z,100401.59
2018-08-27T12:00:51.048Z,100401.48
2018-08-27T12:03:19.277Z,100411.38
2018-08-27T12:05:47.656Z,100415.67
2018-08-27T12:08:15.883Z,100413.67
2018-08-27T12:10:44.128Z,100412.83
2018-08-27T12:13:12.373Z,100409.03
2018-08-27T12:15:40.608Z,100414.49
2018-08-27T12:18:08.813Z,100409.87
2018-08-27T12:20:37.049Z,100412.28
2018-08-27T12:23:05.460Z,100407.47
2018-08-27T12:25:33.689Z,100415.42
2018-08-27T12:28:01.912Z,100419.05
2018-08-27T12:30:30.150Z,100418.64
2018-08-27T12:32:58.368Z,100419.31
2018-08-27T12:35:26.597Z,100424.40
2018-08-27T12:37:54.847Z,100407.70
2018-08-27T12:40:23.066Z,100389.20
2018-08-27T12:42:51.300Z,100402.07
2018-08-27T12:45:19.522Z,100403.43
2018-08-27T12:47:47.744Z,100408.52
2018-08-27T12:50:16.005Z,100406.34
2018-08-27T12:52:44.245Z,100402.34
2018-08-27T12:55:12.524Z,100406.60
2018-08-27T12:57:40.748Z,100410.30
2018-08-27T13:00:13.576Z,100415.56
2018-08-27T13:02:41.816Z,100411.00
2018-08-27T13:05:10.683Z,100420.79
2018-08-27T13:07:39.007Z,100426.14
2018-08-27T13:10:07.308Z,100415.48
2018-08-27T13:12:35.614Z,100411.91
2018-08-27T13:15:03.816Z,100407.97
2018-08-27T13:17:32.031Z,100416.47
2018-08-27T13:20:00.305Z,100415.91
2018-08-27T13:22:30.913Z,100424.77
2018-08-27T13:24:59.832Z,100412.05
2018-08-27T13:27:28.222Z,100415.05
2018-08-27T13:29:56.755Z,100415.45
2018-08-27T13:32:25.532Z,100412.84
2018-08-27T13:34:54.101Z,100411.27
2018-08-27T13:37:22.488Z,100408.84
2018-08-27T13:39:50.822Z,100400.30
2018-08-27T13:42:19.129Z,100403.92
2018-08-27T13:44:47.397Z,100406.13
2018-08-27T13:47:16.221Z,100409.36
2018-08-27T13:49:44.684Z,100410.63
2018-08-27T13:52:13.228Z,100405.23
2018-08-27T13:54:41.496Z,100402.01
2018-08-27T13:57:10.061Z,100414.27
2018-08-27T13:59:38.440Z,100412.55
2018-08-27T14:02:07.298Z,100414.71
2018-08-27T14:04:36.096Z,100414.89
2018-08-27T14:07:04.641Z,100415.11
2018-08-27T14:09:32.954Z,100421.13
2018-08-27T14:12:01.582Z,100409.63
2018-08-27T14:14:29.824Z,100411.19
2018-08-27T14:16:58.080Z,100405.67
2018-08-27T14:19:26.813Z,100414.97
2018-08-27T14:21:55.542Z,100429.02
2018-08-27T14:24:24.204Z,100424.82
2018-08-27T14:26:53.852Z,100413.45
2018-08-27T14:29:23.576Z,100440.52
2018-08-27T14:31:52.254Z,100460.23
2018-08-27T14:34:20.420Z,100470.69
2018-08-27T14:36:49.433Z,100481.46
2018-08-27T14:39:17.682Z,100487.21
2018-08-27T14:41:45.982Z,100500.32
2018-08-27T14:44:14.248Z,100499.02
2018-08-27T14:46:43.001Z,100491.13
2018-08-27T14:49:11.539Z,100498.91
2018-08-27T14:51:40.040Z,100505.33
2018-08-27T14:54:08.772Z,100497.98
2018-08-27T14:56:37.307Z,100502.88
2018-08-27T14:59:05.751Z,100506.58
2018-08-27T15:01:34.264Z,100507.80
2018-08-27T15:04:02.725Z,100512.57
2018-08-27T15:06:31.317Z,100510.08
2018-08-27T15:08:59.727Z,100510.50
2018-08-27T15:11:28.111Z,100514.91
2018-08-27T15:13:56.463Z,100519.68
2018-08-27T15:16:24.719Z,100517.90
2018-08-27T15:18:53.456Z,100525.29
2018-08-27T15:21:22.104Z,100528.13
2018-08-27T15:23:50.556Z,100529.94
2018-08-27T15:26:19.025Z,100536.20
2018-08-27T15:28:47.495Z,100536.20
2018-08-27T15:31:16.200Z,100542.86
2018-08-27T15:33:44.413Z,100543.86
2018-08-27T15:36:12.656Z,100547.96
2018-08-27T15:38:41.184Z,100543.97
2018-08-27T15:41:09.640Z,100550.27
2018-08-27T15:43:38.046Z,100554.33
2018-08-27T15:46:11.637Z,100555.78
2018-08-27T15:48:39.944Z,100551.06
2018-08-27T15:51:08.304Z,100550.36
2018-08-27T15:53:36.562Z,100558.64
2018-08-27T15:56:04.991Z,100564.52
2018-08-27T15:58:33.322Z,100564.00
2018-08-27T16:01:01.721Z,100572.73
2018-08-27T16:03:30.062Z,100578.31
2018-08-27T16:05:58.369Z,100582.32
2018-08-27T16:08:26.685Z,100586.70
2018-08-27T16:10:55.029Z,100581.65
2018-08-27T16:13:23.304Z,100586.10
2018-08-27T16:15:51.559Z,100593.42
2018-08-27T16:18:19.876Z,100597.50
2018-08-27T16:20:48.241Z,100603.77
2018-08-27T16:23:16.552Z,100606.60
2018-08-27T16:25:45.211Z,100603.36
2018-08-27T16:28:13.712Z,100606.42
2018-08-27T16:30:41.964Z,100607.30
2018-08-27T16:33:11.489Z,100615.06
2018-08-27T16:35:40.401Z,100615.95
2018-08-27T16:38:08.947Z,100626.14
2018-08-27T16:40:37.227Z,100631.34
2018-08-27T16:43:05.480Z,100629.94
2018-08-27T16:45:33.703Z,100631.66
2018-08-27T16:48:02.124Z,100635.69
2018-08-27T16:50:30.368Z,100635.89
2018-08-27T16:52:58.648Z,100642.73
2018-08-27T16:55:26.968Z,100647.39
2018-08-27T16:57:55.321Z,100648.55
2018-08-27T17:00:23.598Z,100648.95
2018-08-27T17:02:51.885Z,100654.57
2018-08-27T17:05:20.149Z,100657.96
2018-08-27T17:07:48.448Z,100656.05
2018-08-27T17:10:16.810Z,100666.03
2018-08-27T17:12:46.128Z,100661.72
2018-08-27T17:15:14.668Z,100669.84
2018-08-27T17:17:42.957Z,100673.30
2018-08-27T17:20:11.558Z,100678.06
2018-08-27T17:22:41.188Z,100685.95
2018-08-27T17:25:09.864Z,100691.88
2018-08-27T17:27:38.377Z,100694.28
2018-08-27T17:30:07.214Z,100688.33
2018-08-27T17:32:35.824Z,100699.36
2018-08-27T17:35:04.206Z,100695.20
2018-08-27T17:37:32.597Z,100699.91
2018-08-27T17:40:01.340Z,100701.36
2018-08-27T17:42:29.991Z,100702.34
2018-08-27T17:44:59.883Z,100709.72
2018-08-27T17:47:28.092Z,100716.19
2018-08-27T17:49:56.552Z,100722.26
2018-08-27T17:52:25.545Z,100721.98
2018-08-27T17:54:54.005Z,100731.81
2018-08-27T17:57:22.329Z,100734.63
2018-08-27T17:59:50.662Z,100729.69
2018-08-27T18:02:19.005Z,100734.41
2018-08-27T18:04:47.424Z,100729.33
2018-08-27T18:07:15.830Z,100741.64
2018-08-27T18:09:44.481Z,100744.17
2018-08-27T18:12:12.785Z,100750.20
2018-08-27T18:14:41.135Z,100748.13
2018-08-27T18:17:09.436Z,100758.39
2018-08-27T18:19:37.799Z,100765.97
2018-08-27T18:22:06.414Z,100768.45
2018-08-27T18:24:34.847Z,100768.68
2018-08-27T18:27:03.144Z,100777.88
2018-08-27T18:29:31.489Z,100787.27
2018-08-27T18:31:59.757Z,100793.34
2018-08-27T18:34:28.038Z,100801.50
2018-08-27T18:36:56.342Z,100795.80
2018-08-27T18:39:24.658Z,100801.98
2018-08-27T18:41:52.927Z,100808.22
2018-08-27T18:44:22.796Z,100811.18
2018-08-27T18:46:51.568Z,100816.06
2018-08-27T18:49:19.833Z,100823.91
2018-08-27T18:51:48.175Z,100825.02
2018-08-27T18:54:16.358Z,100831.81
2018-08-27T18:56:44.637Z,100841.58
2018-08-27T18:59:13.896Z,100841.58
2018-08-27T19:01:44.156Z,100840.77
2018-08-27T19:04:12.712Z,100844.39
2018-08-27T19:06:41.062Z,100853.95
2018-08-27T19:09:10.123Z,100856.27
2018-08-27T19:11:38.395Z,100861.00
2018-08-27T19:14:07.450Z,100860.81
2018-08-27T19:16:36.281Z,100862.97
2018-08-27T19:19:04.662Z,100864.66
2018-08-27T19:21:33.019Z,100870.00
2018-08-27T19:24:01.768Z,100867.95
2018-08-27T19:26:30.000Z,100870.50
2018-08-27T19:28:58.484Z,100886.19
2018-08-27T19:31:26.784Z,100884.37
2018-08-27T19:33:55.891Z,100887.81
2018-08-27T19:36:24.342Z,100891.37
2018-08-27T19:38:52.732Z,100901.84
2018-08-27T19:41:21.006Z,100903.02
2018-08-27T19:43:50.403Z,100906.09
2018-08-27T19:46:18.878Z,100903.80
2018-08-27T19:48:47.009Z,100899.07
2018-08-27T19:51:15.385Z,100904.11
2018-08-27T19:53:43.736Z,100910.62
2018-08-27T19:56:12.742Z,100913.34
2018-08-27T19:58:41.076Z,100921.96
2018-08-27T20:01:09.444Z,100920.59
2018-08-27T20:03:37.807Z,100924.48
2018-08-27T20:06:06.137Z,100922.80
2018-08-27T20:08:34.427Z,100925.95
2018-08-27T20:11:02.716Z,100926.40
2018-08-27T20:13:31.052Z,100931.13
2018-08-27T20:15:59.359Z,100932.42
2018-08-27T20:18:27.667Z,100931.98
2018-08-27T20:20:55.925Z,100926.97
2018-08-27T20:23:24.229Z,100926.05
2018-08-27T20:25:52.570Z,100931.32
2018-08-27T20:28:20.796Z,100937.45
2018-08-27T20:30:49.073Z,100936.06
2018-08-27T20:33:17.417Z,100941.63
2018-08-27T20:35:45.676Z,100946.42
2018-08-27T20:38:13.930Z,100948.61
2018-08-27T20:40:42.204Z,100954.26
2018-08-27T20:43:10.433Z,100959.83
2018-08-27T20:45:38.734Z,100958.20
2018-08-27T20:48:07.065Z,100969.48
2018-08-27T20:50:35.393Z,100970.52
2018-08-27T20:53:03.617Z,100973.59
2018-08-27T20:55:31.866Z,100982.23
2018-08-27T20:58:00.180Z,100980.00
2018-08-27T21:00:28.444Z,100982.93
2018-08-27T21:02:56.750Z,100984.59
2018-08-27T21:05:24.944Z,100989.34
2018-08-27T21:07:53.173Z,100993.14
2018-08-27T21:10:22.305Z,100991.50
2018-08-27T21:12:50.529Z,100995.83
2018-08-27T21:15:18.794Z,101003.84
2018-08-27T21:17:50.337Z,100999.94
2018-08-27T21:20:19.280Z,101005.58
2018-08-27T21:22:47.577Z,101003.83
2018-08-27T21:25:16.503Z,101003.42
2018-08-27T21:27:45.655Z,101006.03
2018-08-27T21:30:15.292Z,101009.56
2018-08-27T21:32:43.597Z,101008.70
2018-08-27T21:35:11.836Z,101013.08
2018-08-27T21:37:40.132Z,101007.92
2018-08-27T21:40:08.464Z,101007.05
2018-08-27T21:42:36.724Z,101008.77
2018-08-27T21:45:05.176Z,101013.59
2018-08-27T21:47:33.736Z,101014.45
2018-08-27T21:50:02.028Z,101007.02
2018-08-27T21:52:30.249Z,101007.41
2018-08-27T21:54:58.495Z,101008.62
2018-08-27T21:57:26.725Z,101014.64
2018-08-27T21:59:54.966Z,101019.47
2018-08-27T22:02:28.472Z,101018.27
2018-08-27T22:04:56.749Z,101022.97
2018-08-27T22:07:24.964Z,101032.95
2018-08-27T22:09:53.240Z,101040.30
2018-08-27T22:12:21.476Z,101039.97
2018-08-27T22:14:51.277Z,101047.31
2018-08-27T22:17:19.596Z,101046.02
2018-08-27T22:19:47.911Z,101052.94
2018-08-27T22:22:16.220Z,101055.11
2018-08-27T22:24:44.473Z,101052.94
2018-08-27T22:27:12.761Z,101055.50
2018-08-27T22:29:41.053Z,101055.13
2018-08-27T22:32:09.290Z,101054.75
2018-08-27T22:34:37.550Z,101055.95
2018-08-27T22:37:06.181Z,101061.55
2018-08-27T22:39:34.450Z,101059.86
2018-08-27T22:42:02.781Z,101056.42
2018-08-27T22:44:31.159Z,101065.11
2018-08-27T22:46:59.425Z,101064.20
2018-08-27T22:49:27.660Z,101065.13
2018-08-27T22:51:55.939Z,101068.66
2018-08-27T22:54:24.156Z,101074.69
2018-08-27T22:56:52.383Z,101076.12
2018-08-27T22:59:20.716Z,101081.73
2018-08-27T23:01:49.741Z,101086.50
2018-08-27T23:04:23.196Z,101078.34
2018-08-27T23:06:51.419Z,101081.36
2018-08-27T23:09:19.653Z,101079.20
2018-08-27T23:11:47.896Z,101081.81
2018-08-27T23:14:16.136Z,101080.09
2018-08-27T23:16:44.429Z,101090.06
2018-08-27T23:19:12.636Z,101081.44
2018-08-27T23:21:40.897Z,101086.61
2018-08-27T23:24:09.132Z,101083.55
2018-08-27T23:26:37.344Z,101082.73
2018-08-27T23:29:05.602Z,101090.59
2018-08-27T23:31:33.815Z,101088.47
2018-08-27T23:34:02.041Z,101089.78
2018-08-27T23:36:30.276Z,101088.59
2018-08-27T23:38:58.486Z,101090.80
2018-08-27T23:41:26.711Z,101088.17
2018-08-27T23:43:54.916Z,101094.27
2018-08-27T23:46:23.152Z,101090.93
2018-08-27T23:48:51.352Z,101093.58
2018-08-27T23:51:19.608Z,101097.90
2018-08-27T23:53:47.805Z,101099.23
2018-08-27T23:56:16.043Z,101097.09
2018-08-27T23:58:44.252Z,101097.10
